Osnabrueck, Germany

8:38 PM CEST on May 06, 2015 (GMT +0200)
Am Werksberg | | Change Station
CLOSE
Current Station
Personal Weather Station
Location: Osnabrück, NIEDERSACHSEN
Elevation: 312 ft
Nearby Weather Stations

Elev 312 ft 52.25 °N, 8.11 °E | Updated 18 seconds ago

Scattered Clouds
Scattered Clouds
54.3 °F
Feels Like 54.3 °F
N
1.1
Wind Variable Wind from SE
Gusts 2.5 mph

Today
High -- | Low -- °F
--% Chance of Precip.
Yesterday
High -- | Low -- °F
Precip. -- in
5:48 AM 9:01 PM
Waning Gibbous, 93% visible
Pressure 29.86 in
Visibility 6.2 miles
Clouds Few 3500 ft
Scattered Clouds 25000 ft
Dew Point 42 °F
Humidity 63%
Rainfall 0.07 in
Snow Depth Not available.
UV 0.0 out of 12
Pollen Not available.
Air Quality Not available.
Flu Activity Not available.
METAR EDDG 061820Z 19009KT 9999 FEW035CB SCT250 12/05 Q1011 NOSIG

More Conditions Fewer Conditions

Pressure 29.86 in
Visibility 6.2 miles
Clouds Few 3500 ft
Scattered Clouds 25000 ft
Dew Point 42 °F
Humidity 63%
Rainfall 0.07 in
Snow Depth Not available.
UV 0.0 out of 12
Pollen Not available.
Air Quality Not available.
Flu Activity Not available.
METAR EDDG 061820Z 19009KT 9999 FEW035CB SCT250 12/05 Q1011 NOSIG

More Conditions Fewer Conditions

10-Day Weather Forecast

Almanac

Astronomy

May. 06, 2015 Rise Set
Actual Time
Civil Twilight
Nautical Twilight
Astronomical Twilight
Moon
Length of Visible Light
Length of Day
Tomorrow will be .
, % of the Moon is Illuminated

Today's Extremes

Country Highs Country Lows

Community

WunderPhotos

Upload Photos

1,818,978 photos uploaded!

WunderBlogs® & News

Nearby

Air Quality

  Air Quality AQ Index Pollutant
Not available.

Snow Depth

Station Depth Elevation

Earthquake Activity

City Distance Mag. Time & Date
Minimum magnitude displayed is 2.5.

Coastal Water Temperatures

Place Temperature

Stations

Nearby Weather Stations

Station Location Temp. Windchill Dew Point Humidity Wind Precip. Elev Updated Type